Time;durP1;ratioP1;P1;durP2;ratioP2;P2;SDS_P1;SDS_P2;PMS_P1;PMS_P2;Temp;Humidity;BMP_temperature;BMP_pressure;BME280_temperature;BME280_humidity;BME280_pressure;Samples;Min_cycle;Max_cycle;Signal;HPM_P1;HPM_P2
2022/10/26 00:02:18;;;;;;;8.98;2.97;;;15.60;80.30;;;;;;5000298;28;20038;-78
2022/10/26 00:04:44;;;;;;;12.40;3.53;;;15.60;80.20;;;;;;4999836;28;20038;-79
2022/10/26 00:07:10;;;;;;;9.32;2.67;;;15.60;80.20;;;;;;4998867;28;20026;-74
2022/10/26 00:09:36;;;;;;;9.38;3.08;;;15.60;80.10;;;;;;4998761;28;20029;-78
2022/10/26 00:12:02;;;;;;;10.57;3.47;;;15.60;80.10;;;;;;4984369;28;20096;-75
2022/10/26 00:14:28;;;;;;;9.05;2.92;;;15.60;80.10;;;;;;5001285;28;20517;-81
2022/10/26 00:16:54;;;;;;;7.32;2.67;;;15.60;79.90;;;;;;5001443;28;20053;-77
2022/10/26 00:19:19;;;;;;;8.50;3.03;;;15.60;80.00;;;;;;4998429;28;20030;-74
2022/10/26 00:21:45;;;;;;;6.95;2.85;;;15.50;80.00;;;;;;4989506;28;20421;-75
2022/10/26 00:24:11;;;;;;;6.40;2.20;;;15.50;79.90;;;;;;4999526;28;20524;-73
2022/10/26 00:26:38;;;;;;;9.57;2.90;;;15.60;79.50;;;;;;4984289;28;20037;-77
2022/10/26 00:29:03;;;;;;;8.80;2.97;;;15.60;79.50;;;;;;5000287;28;20034;-76
2022/10/26 00:31:29;;;;;;;6.55;2.45;;;15.60;79.50;;;;;;4999997;28;20040;-76
2022/10/26 00:33:56;;;;;;;6.68;2.25;;;15.60;79.70;;;;;;4999523;28;20050;-80
2022/10/26 00:36:23;;;;;;;8.02;2.83;;;15.50;79.70;;;;;;5001644;28;20396;-75
2022/10/26 00:38:50;;;;;;;8.32;2.80;;;15.60;79.80;;;;;;4981947;28;20416;-80
2022/10/26 00:41:18;;;;;;;8.25;2.30;;;15.60;79.80;;;;;;5000205;28;20033;-74
2022/10/26 00:43:44;;;;;;;6.45;2.20;;;15.60;79.50;;;;;;5001296;28;20030;-75
2022/10/26 00:46:18;;;;;;;8.50;2.80;;;15.60;79.60;;;;;;5001345;28;20052;-75
2022/10/26 00:48:49;;;;;;;8.65;2.80;;;15.60;79.70;;;;;;5002219;28;20038;-80
2022/10/26 00:51:24;;;;;;;9.13;3.13;;;15.50;80.00;;;;;;5003908;28;20029;-77
2022/10/26 00:53:50;;;;;;;6.80;2.40;;;15.50;80.00;;;;;;4996532;28;20104;-75
2022/10/26 00:56:17;;;;;;;9.70;2.63;;;15.50;80.10;;;;;;4982649;28;20067;-76
2022/10/26 00:58:43;;;;;;;8.23;2.72;;;15.50;80.10;;;;;;4993002;28;20077;-76
2022/10/26 01:01:08;;;;;;;9.30;2.53;;;15.50;80.20;;;;;;5000905;28;20086;-75
2022/10/26 01:03:35;;;;;;;10.07;2.75;;;15.50;80.10;;;;;;4999790;28;20117;-77
2022/10/26 01:06:03;;;;;;;6.13;2.50;;;15.50;80.10;;;;;;5000762;28;20032;-78
2022/10/26 01:08:29;;;;;;;9.57;2.53;;;15.60;80.00;;;;;;5001931;28;20121;-73
2022/10/26 01:10:57;;;;;;;8.88;3.13;;;15.60;80.10;;;;;;5002165;28;20045;-73
2022/10/26 01:13:24;;;;;;;7.10;2.30;;;15.60;80.00;;;;;;5003030;28;20038;-74
2022/10/26 01:16:02;;;;;;;10.40;2.88;;;15.60;80.00;;;;;;5002042;28;20523;-72
2022/10/26 01:18:53;;;;;;;5.63;2.47;;;15.60;80.00;;;;;;5001430;28;20504;-74
2022/10/26 01:21:44;;;;;;;7.70;2.45;;;15.50;80.20;;;;;;5002024;28;20127;-73
2022/10/26 01:24:51;;;;;;;7.82;2.70;;;15.50;80.30;;;;;;5000214;28;20045;-73
2022/10/26 01:27:24;;;;;;;10.40;2.75;;;15.60;80.20;;;;;;4930370;29;20031;-79
2022/10/26 01:29:49;;;;;;;7.50;2.63;;;15.50;80.20;;;;;;4921740;29;20393;-78
2022/10/26 01:32:32;;;;;;;8.90;2.50;;;15.50;80.20;;;;;;4962481;28;20038;-75
2022/10/26 01:35:13;;;;;;;7.88;2.72;;;15.50;80.20;;;;;;4992480;28;20256;-76
2022/10/26 01:37:46;;;;;;;9.55;2.72;;;15.50;80.20;;;;;;4983305;28;20123;-75
2022/10/26 01:40:23;;;;;;;5.60;2.53;;;15.50;80.30;;;;;;4989822;28;20405;-76
2022/10/26 01:42:53;;;;;;;7.80;2.20;;;15.60;80.00;;;;;;5004805;28;20033;-75
2022/10/26 01:45:19;;;;;;;11.32;2.50;;;15.60;80.10;;;;;;5002317;28;20046;-74
2022/10/26 01:47:47;;;;;;;11.15;2.50;;;15.60;80.20;;;;;;5003849;28;20038;-83
2022/10/26 01:50:12;;;;;;;7.32;2.47;;;15.60;80.00;;;;;;5001470;28;20466;-75
2022/10/26 01:52:39;;;;;;;7.25;2.47;;;15.60;80.10;;;;;;4998247;28;20026;-74
2022/10/26 01:55:27;;;;;;;8.73;2.70;;;15.60;80.00;;;;;;5001926;28;20038;-78
2022/10/26 01:57:58;;;;;;;8.25;2.60;;;15.60;80.10;;;;;;4974944;28;20041;-75
2022/10/26 02:00:24;;;;;;;7.80;2.40;;;15.60;80.20;;;;;;4985037;28;20037;-77
2022/10/26 02:03:11;;;;;;;7.18;2.70;;;15.50;80.20;;;;;;4987002;28;20472;-75
2022/10/26 02:05:40;;;;;;;7.13;2.47;;;15.60;80.20;;;;;;4997116;28;20053;-79
2022/10/26 02:08:17;;;;;;;7.65;2.78;;;15.50;80.30;;;;;;4999391;28;20054;-76
2022/10/26 02:10:52;;;;;;;7.35;2.50;;;15.50;80.40;;;;;;5001936;28;20060;-76
2022/10/26 02:13:25;;;;;;;6.63;2.53;;;15.50;80.50;;;;;;4982709;28;20627;-76
2022/10/26 02:16:35;;;;;;;7.65;2.38;;;15.50;80.50;;;;;;4998711;28;20046;-77
2022/10/26 02:19:09;;;;;;;8.00;2.88;;;15.50;80.50;;;;;;4999051;28;20038;-75
2022/10/26 02:21:39;;;;;;;9.57;2.67;;;15.50;80.30;;;;;;4995439;28;20036;-76
2022/10/26 02:24:07;;;;;;;9.75;2.85;;;15.60;80.30;;;;;;4997503;28;20040;-77
2022/10/26 02:26:34;;;;;;;8.48;2.92;;;15.60;80.10;;;;;;5008588;28;20037;-73
2022/10/26 02:29:04;;;;;;;5.55;2.42;;;15.60;80.00;;;;;;4984875;28;20130;-75
2022/10/26 02:31:31;;;;;;;7.82;2.67;;;15.60;79.80;;;;;;4989478;28;20441;-76
2022/10/26 02:33:59;;;;;;;7.35;2.35;;;15.60;79.70;;;;;;5002370;28;20044;-73
2022/10/26 02:36:27;;;;;;;6.63;2.30;;;15.70;79.60;;;;;;4995610;28;20037;-77
2022/10/26 02:38:55;;;;;;;7.93;2.63;;;15.70;79.60;;;;;;5000672;28;20424;-77
2022/10/26 02:41:24;;;;;;;7.07;2.83;;;15.70;79.50;;;;;;5001102;28;20115;-74
2022/10/26 02:43:58;;;;;;;6.72;2.53;;;15.80;79.30;;;;;;4983341;28;20489;-74
2022/10/26 02:46:26;;;;;;;6.75;2.30;;;15.80;79.20;;;;;;5001695;28;20038;-78
2022/10/26 02:48:52;;;;;;;8.23;2.45;;;15.80;78.80;;;;;;4984070;28;20034;-79
2022/10/26 02:51:27;;;;;;;6.57;2.47;;;15.90;78.70;;;;;;4983100;28;20382;-76
2022/10/26 02:54:15;;;;;;;6.93;2.65;;;15.90;78.80;;;;;;5002256;28;20325;-73
2022/10/26 02:56:43;;;;;;;5.85;2.13;;;15.90;78.80;;;;;;5002792;28;20034;-73
2022/10/26 02:59:11;;;;;;;7.63;2.42;;;15.90;78.60;;;;;;4997932;28;20092;-77
2022/10/26 03:01:37;;;;;;;8.10;2.75;;;15.90;78.70;;;;;;5005547;28;20477;-73
2022/10/26 03:04:03;;;;;;;7.07;2.20;;;15.90;78.60;;;;;;5005202;28;20160;-74
2022/10/26 03:06:29;;;;;;;7.07;2.42;;;16.00;78.40;;;;;;5001230;28;20128;-73
2022/10/26 03:08:54;;;;;;;5.82;2.22;;;16.10;78.40;;;;;;5001696;28;20062;-76
2022/10/26 03:11:20;;;;;;;7.85;2.20;;;16.10;78.50;;;;;;5001515;28;20041;-72
2022/10/26 03:13:45;;;;;;;7.70;2.65;;;16.00;78.90;;;;;;4988237;28;20538;-72
2022/10/26 03:16:12;;;;;;;8.10;2.28;;;16.00;78.90;;;;;;4987870;28;20108;-75
2022/10/26 03:18:37;;;;;;;7.38;2.70;;;16.00;78.80;;;;;;5000540;28;20109;-76
2022/10/26 03:21:03;;;;;;;6.53;2.60;;;16.00;79.00;;;;;;5002417;28;20129;-77
2022/10/26 03:23:28;;;;;;;7.53;2.55;;;16.00;79.00;;;;;;5003118;28;20333;-73
2022/10/26 03:25:58;;;;;;;4.55;2.10;;;16.00;79.10;;;;;;5000909;28;20022;-73
2022/10/26 03:28:23;;;;;;;7.70;2.60;;;16.00;79.20;;;;;;5000836;28;20030;-77
2022/10/26 03:30:49;;;;;;;7.78;2.42;;;15.90;79.10;;;;;;5001855;28;20559;-74
2022/10/26 03:33:14;;;;;;;7.22;2.50;;;15.90;79.10;;;;;;4999272;28;20109;-79
2022/10/26 03:35:40;;;;;;;6.40;2.47;;;15.90;79.10;;;;;;5002045;28;20278;-79
2022/10/26 03:38:06;;;;;;;6.53;2.30;;;15.90;79.20;;;;;;4999614;28;20030;-74
2022/10/26 03:40:31;;;;;;;8.10;2.45;;;16.00;79.20;;;;;;5002315;28;20022;-77
2022/10/26 03:42:57;;;;;;;8.35;2.20;;;16.00;79.30;;;;;;5002589;28;20308;-76
2022/10/26 03:45:23;;;;;;;6.80;2.40;;;16.00;79.30;;;;;;4981227;28;20140;-76
2022/10/26 03:47:48;;;;;;;5.63;2.35;;;15.90;79.20;;;;;;4985038;28;20065;-77
2022/10/26 03:50:18;;;;;;;7.43;2.38;;;15.90;79.30;;;;;;5000679;28;20470;-80
2022/10/26 03:52:45;;;;;;;9.30;2.25;;;15.90;79.50;;;;;;4984597;28;20305;-76
2022/10/26 03:55:10;;;;;;;4.90;2.03;;;16.00;79.30;;;;;;4998579;28;20073;-75
2022/10/26 03:57:40;;;;;;;6.15;2.35;;;16.00;79.20;;;;;;4997066;28;20136;-77
2022/10/26 04:00:06;;;;;;;6.60;2.20;;;16.10;79.10;;;;;;5000871;28;20061;-75
2022/10/26 04:02:32;;;;;;;8.93;2.67;;;16.10;79.10;;;;;;5001262;28;20026;-74
2022/10/26 04:04:58;;;;;;;12.98;3.50;;;16.10;79.30;;;;;;4999220;28;20041;-75
2022/10/26 04:07:23;;;;;;;6.95;2.50;;;16.10;79.10;;;;;;4981087;28;20068;-75
2022/10/26 04:09:49;;;;;;;10.85;2.55;;;16.10;79.00;;;;;;5001671;28;20082;-74
2022/10/26 04:12:15;;;;;;;5.97;2.22;;;16.10;79.00;;;;;;4999444;28;20084;-75
2022/10/26 04:14:40;;;;;;;8.63;2.50;;;16.10;79.10;;;;;;4986290;28;20102;-76
2022/10/26 04:17:06;;;;;;;7.75;2.15;;;16.10;78.80;;;;;;4995204;28;20029;-76
2022/10/26 04:19:31;;;;;;;7.43;2.70;;;16.10;78.90;;;;;;4999723;28;20482;-79
2022/10/26 04:21:57;;;;;;;6.43;2.10;;;16.20;78.90;;;;;;4998624;28;20347;-74
2022/10/26 04:24:23;;;;;;;5.60;2.65;;;16.20;78.90;;;;;;4993475;28;20044;-76
2022/10/26 04:26:48;;;;;;;9.35;2.67;;;16.20;78.90;;;;;;4993857;28;20032;-75
2022/10/26 04:29:14;;;;;;;6.80;2.28;;;16.10;79.10;;;;;;4972941;28;20888;-80
2022/10/26 04:31:40;;;;;;;5.65;2.30;;;16.20;79.20;;;;;;4992952;28;20153;-77
2022/10/26 04:34:06;;;;;;;5.05;2.10;;;16.20;79.10;;;;;;4992732;28;20976;-76
2022/10/26 04:36:33;;;;;;;10.90;2.70;;;16.30;79.00;;;;;;4978934;28;20026;-74
2022/10/26 04:38:59;;;;;;;7.25;2.42;;;16.30;79.10;;;;;;4991707;28;20635;-80
2022/10/26 04:41:24;;;;;;;7.13;2.22;;;16.30;78.90;;;;;;4997631;28;20088;-76
2022/10/26 04:43:50;;;;;;;5.25;2.40;;;16.30;78.80;;;;;;4996029;28;20077;-74
2022/10/26 04:46:15;;;;;;;7.05;2.60;;;16.30;78.80;;;;;;4996023;28;20034;-77
2022/10/26 04:48:41;;;;;;;8.25;2.50;;;16.40;78.80;;;;;;4994501;28;20092;-75
2022/10/26 04:51:06;;;;;;;7.65;2.53;;;16.40;78.80;;;;;;4995214;28;20026;-80
2022/10/26 04:53:33;;;;;;;12.05;3.38;;;16.30;79.00;;;;;;5001176;28;20041;-74
2022/10/26 04:55:59;;;;;;;5.80;2.58;;;16.20;79.30;;;;;;5001548;28;20038;-76
2022/10/26 04:58:26;;;;;;;8.75;2.35;;;16.20;79.30;;;;;;5003156;28;20109;-77
2022/10/26 05:00:52;;;;;;;8.82;2.63;;;16.20;79.40;;;;;;4999951;28;20667;-73
2022/10/26 05:03:18;;;;;;;6.07;2.55;;;16.10;79.60;;;;;;5000048;28;20393;-76
2022/10/26 05:05:43;;;;;;;6.90;2.55;;;16.20;79.60;;;;;;4993043;28;20035;-77
2022/10/26 05:08:09;;;;;;;7.78;2.95;;;16.20;79.60;;;;;;4995134;28;20056;-74
2022/10/26 05:10:35;;;;;;;6.18;2.75;;;16.20;79.60;;;;;;4994819;28;20485;-79
2022/10/26 05:13:01;;;;;;;6.65;2.30;;;16.20;79.70;;;;;;4992233;28;20058;-75
2022/10/26 05:15:27;;;;;;;8.73;2.83;;;16.10;79.70;;;;;;4979052;28;20042;-75
2022/10/26 05:17:58;;;;;;;8.13;2.50;;;16.10;79.70;;;;;;4995767;28;20121;-77
2022/10/26 05:20:29;;;;;;;8.98;2.60;;;16.10;80.00;;;;;;4993132;28;20061;-74
2022/10/26 05:22:56;;;;;;;7.85;2.85;;;16.10;79.80;;;;;;4996054;28;20042;-77
2022/10/26 05:25:22;;;;;;;12.32;3.42;;;16.10;80.20;;;;;;4992285;28;20108;-77
2022/10/26 05:27:48;;;;;;;7.65;3.17;;;16.00;80.00;;;;;;4978347;28;20120;-76
2022/10/26 05:30:13;;;;;;;7.28;2.63;;;16.00;80.30;;;;;;5001441;28;20026;-74
2022/10/26 05:32:39;;;;;;;11.02;3.05;;;16.00;80.40;;;;;;5003597;28;20030;-77
2022/10/26 05:35:05;;;;;;;9.25;2.33;;;16.00;80.60;;;;;;5002076;28;20437;-73
2022/10/26 05:37:30;;;;;;;8.48;3.20;;;15.90;80.70;;;;;;5005009;28;20037;-74
2022/10/26 05:39:56;;;;;;;8.68;2.90;;;15.90;80.80;;;;;;4988973;28;20023;-75
2022/10/26 05:42:22;;;;;;;10.93;3.22;;;16.00;80.70;;;;;;5004284;28;20507;-75
2022/10/26 05:44:47;;;;;;;7.35;3.10;;;15.90;81.00;;;;;;5001089;28;20060;-77
2022/10/26 05:47:13;;;;;;;7.95;2.85;;;15.90;80.90;;;;;;5001267;28;20058;-74
2022/10/26 05:49:38;;;;;;;7.50;2.92;;;15.80;81.20;;;;;;4999898;28;20496;-74
2022/10/26 05:52:04;;;;;;;9.60;3.03;;;15.80;81.40;;;;;;4983498;28;20033;-77
2022/10/26 05:54:30;;;;;;;6.57;2.50;;;15.80;81.50;;;;;;4984412;28;20048;-73
2022/10/26 05:56:56;;;;;;;10.68;2.92;;;15.70;81.70;;;;;;4999212;28;20133;-78
2022/10/26 05:59:22;;;;;;;10.73;3.50;;;15.70;81.80;;;;;;5001511;28;20120;-79
2022/10/26 06:02:17;;;;;;;9.80;2.97;;;15.60;82.00;;;;;;4998045;28;20108;-76
2022/10/26 06:04:46;;;;;;;11.13;3.75;;;15.60;82.10;;;;;;4995547;28;20033;-76
2022/10/26 06:07:19;;;;;;;10.63;2.88;;;15.60;82.30;;;;;;4998500;28;20092;-80
2022/10/26 06:09:46;;;;;;;9.20;3.53;;;15.60;82.30;;;;;;5000398;28;20031;-73
2022/10/26 06:12:13;;;;;;;9.95;3.50;;;15.60;82.40;;;;;;4998735;28;20078;-76
2022/10/26 06:14:39;;;;;;;9.98;3.60;;;15.60;82.60;;;;;;4996206;28;20052;-77
2022/10/26 06:17:32;;;;;;;9.88;3.30;;;15.60;82.70;;;;;;4999904;28;20038;-72
2022/10/26 06:20:10;;;;;;;9.45;3.67;;;15.60;82.60;;;;;;4997920;28;20042;-73
2022/10/26 06:22:36;;;;;;;10.57;3.42;;;15.60;82.90;;;;;;5000063;28;20046;-77
2022/10/26 06:25:19;;;;;;;9.45;4.05;;;15.50;83.10;;;;;;4999669;28;20100;-77
2022/10/26 06:28:22;;;;;;;9.63;4.25;;;15.60;83.10;;;;;;4997484;28;20052;-76
2022/10/26 06:30:47;;;;;;;10.18;3.35;;;15.50;83.10;;;;;;5002514;28;20064;-74
2022/10/26 06:33:14;;;;;;;8.98;3.92;;;15.50;83.30;;;;;;5002284;28;20513;-74
2022/10/26 06:35:44;;;;;;;7.97;3.40;;;15.40;83.50;;;;;;4984516;28;20045;-77
2022/10/26 06:38:14;;;;;;;9.52;3.17;;;15.40;83.70;;;;;;5001186;28;20053;-74
2022/10/26 06:40:43;;;;;;;12.20;3.75;;;15.50;83.90;;;;;;5000759;28;20466;-77
2022/10/26 06:43:21;;;;;;;9.60;3.22;;;15.40;84.00;;;;;;4985992;28;20030;-74
2022/10/26 06:45:59;;;;;;;9.48;3.60;;;15.40;84.00;;;;;;4998599;28;20038;-74
2022/10/26 06:48:28;;;;;;;10.68;3.67;;;15.40;84.10;;;;;;4997126;28;20471;-76
2022/10/26 06:50:54;;;;;;;13.52;3.70;;;15.40;84.20;;;;;;4998280;28;20065;-74
2022/10/26 06:53:39;;;;;;;12.13;4.05;;;15.40;84.20;;;;;;4994596;28;20044;-75
2022/10/26 06:56:05;;;;;;;8.25;3.83;;;15.40;84.30;;;;;;4999339;28;20192;-76
2022/10/26 06:58:36;;;;;;;9.18;3.63;;;15.40;84.40;;;;;;4996388;28;20108;-75
2022/10/26 07:01:02;;;;;;;9.32;3.60;;;15.40;84.60;;;;;;5000309;28;20303;-75
2022/10/26 07:03:27;;;;;;;9.38;3.50;;;15.40;84.70;;;;;;4993149;28;20116;-74
2022/10/26 07:05:53;;;;;;;9.65;4.20;;;15.40;84.80;;;;;;4997477;28;20470;-74
2022/10/26 07:08:19;;;;;;;10.85;4.20;;;15.40;85.00;;;;;;4999459;28;20042;-75
2022/10/26 07:10:46;;;;;;;9.48;3.92;;;15.50;84.90;;;;;;4998522;28;20065;-76
2022/10/26 07:13:11;;;;;;;12.18;4.28;;;15.50;84.90;;;;;;4982289;28;20119;-74
2022/10/26 07:15:38;;;;;;;8.25;3.80;;;15.50;84.80;;;;;;4999522;28;20070;-75
2022/10/26 07:18:06;;;;;;;8.40;4.20;;;15.50;84.90;;;;;;4988920;28;20030;-77
2022/10/26 07:20:35;;;;;;;10.05;4.15;;;15.60;84.90;;;;;;4986230;28;20101;-75
2022/10/26 07:23:01;;;;;;;10.55;4.10;;;15.60;84.90;;;;;;4998471;28;20030;-76
2022/10/26 07:25:27;;;;;;;10.07;3.92;;;15.60;84.90;;;;;;4996008;28;20346;-78
2022/10/26 07:27:58;;;;;;;7.22;3.55;;;15.70;85.00;;;;;;5003499;28;20050;-75
2022/10/26 07:30:28;;;;;;;6.47;3.33;;;15.80;85.00;;;;;;5000187;28;20025;-75
2022/10/26 07:33:05;;;;;;;10.65;4.07;;;15.80;84.60;;;;;;4995165;28;20536;-78
2022/10/26 07:35:35;;;;;;;12.90;4.75;;;15.90;84.50;;;;;;4983828;28;20080;-78
2022/10/26 07:38:01;;;;;;;11.13;3.70;;;16.00;84.50;;;;;;5001041;28;20026;-75
2022/10/26 07:40:27;;;;;;;10.60;4.05;;;16.10;84.30;;;;;;4998828;28;20751;-75
2022/10/26 07:42:57;;;;;;;10.40;4.00;;;16.20;84.10;;;;;;4984027;28;20402;-79
2022/10/26 07:45:23;;;;;;;11.13;4.13;;;16.30;83.90;;;;;;4994189;28;20176;-77
2022/10/26 07:47:49;;;;;;;10.82;3.58;;;16.40;83.50;;;;;;4980921;28;20149;-76
2022/10/26 07:50:15;;;;;;;10.85;3.88;;;16.40;83.30;;;;;;4998383;28;20042;-79
2022/10/26 07:52:41;;;;;;;10.65;3.67;;;16.50;83.20;;;;;;4999460;28;20164;-75
2022/10/26 07:55:11;;;;;;;11.05;4.68;;;16.50;83.10;;;;;;4998443;28;20490;-75
2022/10/26 07:57:37;;;;;;;9.10;3.85;;;16.60;83.00;;;;;;4999724;28;20026;-76
2022/10/26 08:00:06;;;;;;;12.13;3.88;;;16.60;82.80;;;;;;4998945;28;20025;-75
2022/10/26 08:02:32;;;;;;;11.00;3.88;;;16.60;82.80;;;;;;4995401;28;20048;-76
2022/10/26 08:04:58;;;;;;;7.95;3.88;;;16.70;82.70;;;;;;5000501;28;20065;-78
2022/10/26 08:07:25;;;;;;;14.07;3.83;;;16.70;82.70;;;;;;4983175;28;20077;-76
2022/10/26 08:09:51;;;;;;;11.55;3.53;;;16.80;82.70;;;;;;4997257;28;20088;-76
2022/10/26 08:12:17;;;;;;;9.30;3.60;;;16.80;82.70;;;;;;4998135;28;20057;-74
2022/10/26 08:14:43;;;;;;;8.48;3.90;;;16.80;82.60;;;;;;4997167;28;20176;-76
2022/10/26 08:17:09;;;;;;;9.05;3.90;;;16.90;82.40;;;;;;5007712;28;20470;-77
2022/10/26 08:19:35;;;;;;;11.98;4.00;;;17.00;82.40;;;;;;5001107;28;20036;-78
2022/10/26 08:22:01;;;;;;;8.27;3.40;;;17.10;82.00;;;;;;4982914;28;20469;-75
2022/10/26 08:24:27;;;;;;;9.77;3.88;;;17.10;81.80;;;;;;4999517;28;20052;-79
2022/10/26 08:26:53;;;;;;;10.27;3.55;;;17.20;81.70;;;;;;5004636;28;20046;-76
2022/10/26 08:29:18;;;;;;;9.70;3.95;;;17.30;81.60;;;;;;5002027;28;20109;-78
2022/10/26 08:31:46;;;;;;;8.20;3.70;;;17.40;81.20;;;;;;5010872;28;20034;-77
2022/10/26 08:34:12;;;;;;;7.63;3.58;;;17.50;81.10;;;;;;4994356;28;20030;-78
2022/10/26 08:36:37;;;;;;;10.25;3.92;;;17.60;80.90;;;;;;5005950;28;20037;-78
2022/10/26 08:39:03;;;;;;;8.88;3.45;;;17.80;80.40;;;;;;4989252;28;20145;-77
2022/10/26 08:41:36;;;;;;;10.85;3.83;;;18.00;80.00;;;;;;5002182;28;20396;-75
2022/10/26 08:44:33;;;;;;;10.20;4.18;;;18.10;79.40;;;;;;4985008;28;20412;-75
2022/10/26 08:47:24;;;;;;;12.07;4.13;;;18.10;79.20;;;;;;5009832;28;20038;-75
2022/10/26 08:50:03;;;;;;;10.00;3.70;;;18.30;79.10;;;;;;5005821;28;20104;-76
2022/10/26 08:52:49;;;;;;;9.27;3.47;;;18.40;78.50;;;;;;5003327;28;20022;-75
2022/10/26 08:55:24;;;;;;;11.95;4.38;;;18.60;78.00;;;;;;4984316;28;20081;-79
2022/10/26 08:57:51;;;;;;;10.68;4.10;;;18.60;77.90;;;;;;5004376;28;20590;-78
2022/10/26 09:00:22;;;;;;;8.27;3.42;;;18.70;77.60;;;;;;5002997;28;20038;-76
2022/10/26 09:02:52;;;;;;;9.43;3.60;;;18.80;77.50;;;;;;5002089;28;20034;-77
2022/10/26 09:05:25;;;;;;;9.77;2.92;;;18.90;76.70;;;;;;5003463;28;20143;-75
2022/10/26 09:08:14;;;;;;;8.60;3.25;;;19.10;76.50;;;;;;4986192;28;20033;-75
2022/10/26 09:10:55;;;;;;;12.70;3.42;;;19.30;76.10;;;;;;5000832;28;20778;-79
2022/10/26 09:13:39;;;;;;;11.23;3.33;;;19.30;75.30;;;;;;5002127;28;20884;-76
2022/10/26 09:16:22;;;;;;;9.80;2.78;;;19.40;75.50;;;;;;5003618;28;20077;-78
2022/10/26 09:18:54;;;;;;;8.68;3.05;;;19.50;75.00;;;;;;4985222;28;20038;-75
2022/10/26 09:21:37;;;;;;;7.30;2.70;;;19.50;74.90;;;;;;5002724;28;20586;-75
2022/10/26 09:24:34;;;;;;;7.00;2.60;;;19.60;73.90;;;;;;5002485;28;20022;-79
2022/10/26 09:27:25;;;;;;;7.95;2.42;;;19.60;73.70;;;;;;4998395;28;20046;-75
2022/10/26 09:29:51;;;;;;;7.15;2.90;;;19.60;72.90;;;;;;5002100;28;20470;-77
2022/10/26 09:32:20;;;;;;;7.25;3.08;;;19.60;73.40;;;;;;4999971;28;20875;-75
2022/10/26 09:34:50;;;;;;;10.45;2.80;;;19.60;73.20;;;;;;5003217;28;20532;-75
2022/10/26 09:37:22;;;;;;;9.88;3.08;;;19.60;73.60;;;;;;5001088;28;20386;-76
2022/10/26 09:40:06;;;;;;;9.07;2.42;;;19.70;72.90;;;;;;5003114;28;20038;-79
2022/10/26 09:43:04;;;;;;;12.32;2.95;;;19.80;72.50;;;;;;5000244;28;20049;-76
2022/10/26 09:45:36;;;;;;;10.10;2.90;;;19.80;72.40;;;;;;4997495;28;20140;-76
2022/10/26 09:48:15;;;;;;;8.60;2.63;;;19.80;71.90;;;;;;4984812;28;20167;-75
2022/10/26 09:50:45;;;;;;;7.85;2.50;;;19.90;71.80;;;;;;5006125;28;20030;-75
2022/10/26 09:53:11;;;;;;;7.93;2.60;;;20.00;71.70;;;;;;4988235;28;20409;-74
2022/10/26 09:55:44;;;;;;;7.95;2.65;;;20.20;71.70;;;;;;5001842;28;20030;-79
2022/10/26 09:58:26;;;;;;;9.13;2.92;;;20.10;71.20;;;;;;5001824;28;20117;-75
2022/10/26 10:00:52;;;;;;;10.15;2.58;;;20.10;70.50;;;;;;4989072;28;20354;-80
2022/10/26 10:03:24;;;;;;;7.57;2.60;;;20.10;70.70;;;;;;4999306;28;20620;-77
2022/10/26 10:05:49;;;;;;;7.30;2.55;;;20.10;71.20;;;;;;5000686;28;20498;-76
2022/10/26 10:08:23;;;;;;;7.22;2.17;;;20.30;70.70;;;;;;5000955;28;20116;-78
2022/10/26 10:10:57;;;;;;;8.70;3.22;;;20.40;70.50;;;;;;5010563;28;20430;-77
2022/10/26 10:13:25;;;;;;;8.18;2.50;;;20.40;70.60;;;;;;5019679;28;20072;-78
2022/10/26 10:15:53;;;;;;;7.93;2.20;;;20.20;70.30;;;;;;5005538;28;20081;-76
2022/10/26 10:18:21;;;;;;;8.95;2.67;;;20.20;70.50;;;;;;4996151;28;20026;-76
2022/10/26 10:20:53;;;;;;;9.35;2.25;;;20.20;70.50;;;;;;4992233;28;20649;-76
2022/10/26 10:23:33;;;;;;;7.20;2.28;;;20.30;70.20;;;;;;4992079;28;20036;-78
2022/10/26 10:26:05;;;;;;;10.23;2.65;;;20.30;70.20;;;;;;4994228;28;20041;-76
2022/10/26 10:28:32;;;;;;;6.65;2.30;;;20.30;70.30;;;;;;4994927;28;20390;-78
2022/10/26 10:31:01;;;;;;;12.07;2.97;;;20.30;70.60;;;;;;4993665;28;20065;-76
2022/10/26 10:33:40;;;;;;;8.23;2.20;;;20.40;70.40;;;;;;4995087;28;20469;-77
2022/10/26 10:36:23;;;;;;;8.68;2.30;;;20.50;70.30;;;;;;4997012;28;20124;-78
2022/10/26 10:38:51;;;;;;;9.13;2.80;;;20.60;69.80;;;;;;4995663;28;20453;-75
2022/10/26 10:41:35;;;;;;;8.13;2.20;;;20.70;69.70;;;;;;4991720;28;20045;-75
2022/10/26 10:44:15;;;;;;;5.90;2.10;;;20.80;68.90;;;;;;4993606;28;20042;-75
2022/10/26 10:46:41;;;;;;;7.90;2.38;;;20.80;69.00;;;;;;4991645;28;20031;-75
2022/10/26 10:49:23;;;;;;;6.55;2.05;;;20.90;69.20;;;;;;4977443;28;20354;-75
2022/10/26 10:51:49;;;;;;;10.95;2.95;;;20.90;68.40;;;;;;4990777;28;20089;-76
2022/10/26 10:54:36;;;;;;;8.13;2.17;;;21.00;68.00;;;;;;4992056;28;20064;-76
2022/10/26 10:57:21;;;;;;;8.07;2.03;;;21.10;68.40;;;;;;4992399;28;20486;-75
2022/10/26 11:00:10;;;;;;;8.77;2.60;;;21.10;68.00;;;;;;4992563;28;20031;-75
2022/10/26 11:02:55;;;;;;;8.32;2.53;;;21.20;68.20;;;;;;4994082;28;21055;-78
2022/10/26 11:05:42;;;;;;;8.25;2.60;;;21.30;68.00;;;;;;4991342;28;20070;-76
2022/10/26 11:08:19;;;;;;;8.27;2.30;;;21.40;67.50;;;;;;4991389;28;20099;-76
2022/10/26 11:10:51;;;;;;;7.60;2.35;;;21.30;68.10;;;;;;4993122;28;20038;-76
2022/10/26 11:13:36;;;;;;;5.95;2.35;;;21.30;67.10;;;;;;4990511;28;20557;-75
2022/10/26 11:16:11;;;;;;;9.95;2.25;;;21.30;68.00;;;;;;4992636;28;20041;-77
2022/10/26 11:18:40;;;;;;;;;;;21.30;67.90;;;;;;4978751;28;20064;-75
2022/10/26 11:21:22;;;;;;;9.77;2.50;;;21.40;67.70;;;;;;4992231;28;20855;-76
2022/10/26 11:24:11;;;;;;;8.68;2.40;;;21.40;67.40;;;;;;4991149;28;20087;-76
2022/10/26 11:26:43;;;;;;;6.57;2.20;;;21.40;67.30;;;;;;4994670;28;20042;-76
2022/10/26 11:29:22;;;;;;;6.50;2.10;;;21.40;67.00;;;;;;4973316;28;20311;-75
2022/10/26 11:31:54;;;;;;;6.28;2.00;;;21.50;67.80;;;;;;4991427;28;20405;-75
2022/10/26 11:34:42;;;;;;;6.78;2.22;;;21.50;67.10;;;;;;4988357;28;20050;-77
2022/10/26 11:37:18;;;;;;;8.85;2.20;;;21.60;67.10;;;;;;4992950;28;20030;-77
2022/10/26 11:39:49;;;;;;;7.03;2.20;;;21.60;66.70;;;;;;5002490;28;20117;-77
2022/10/26 11:42:25;;;;;;;9.18;2.55;;;21.60;66.60;;;;;;4999381;28;20087;-77
2022/10/26 11:45:12;;;;;;;9.57;2.13;;;21.70;66.80;;;;;;4991537;28;20052;-77
2022/10/26 11:47:53;;;;;;;11.32;2.88;;;21.70;66.40;;;;;;4997648;28;20503;-76
2022/10/26 11:50:24;;;;;;;8.20;2.40;;;21.80;66.60;;;;;;4997517;28;20072;-76
2022/10/26 11:53:01;;;;;;;6.25;2.08;;;21.90;66.80;;;;;;4996545;28;20042;-76
2022/10/26 11:55:28;;;;;;;8.18;2.40;;;21.90;66.60;;;;;;4982374;28;20485;-76
2022/10/26 11:57:54;;;;;;;9.32;2.10;;;22.00;66.40;;;;;;5000905;28;20446;-75
2022/10/26 12:00:21;;;;;;;8.63;2.13;;;21.90;65.40;;;;;;4999645;28;20110;-77
2022/10/26 12:03:13;;;;;;;8.63;2.33;;;22.00;65.00;;;;;;5000976;28;20421;-76
2022/10/26 12:05:43;;;;;;;12.15;2.15;;;22.00;65.60;;;;;;4985199;28;20497;-77
2022/10/26 12:08:30;;;;;;;6.75;2.08;;;22.10;64.90;;;;;;4999254;28;20195;-76
2022/10/26 12:11:38;;;;;;;10.05;2.35;;;22.00;65.10;;;;;;4996721;28;20038;-76
2022/10/26 12:14:25;;;;;;;9.50;2.05;;;22.00;65.60;;;;;;4995274;28;20049;-76
2022/10/26 12:16:59;;;;;;;7.68;2.25;;;22.20;65.90;;;;;;4998565;28;20094;-75
2022/10/26 12:19:34;;;;;;;7.80;1.90;;;22.10;65.70;;;;;;4977684;28;20444;-77
2022/10/26 12:22:00;;;;;;;6.07;2.00;;;22.10;66.00;;;;;;4992122;28;20030;-76
2022/10/26 12:24:32;;;;;;;8.68;2.03;;;22.10;66.20;;;;;;4994778;28;20104;-76
2022/10/26 12:27:03;;;;;;;7.25;1.80;;;22.10;66.20;;;;;;4998091;28;20037;-77
2022/10/26 12:29:35;;;;;;;7.32;2.25;;;22.10;66.00;;;;;;4991614;28;20056;-77
2022/10/26 12:32:02;;;;;;;7.22;2.00;;;22.10;66.30;;;;;;4988266;28;20034;-75
2022/10/26 12:34:37;;;;;;;9.88;2.15;;;22.00;66.50;;;;;;4976833;28;20318;-77
2022/10/26 12:37:03;;;;;;;8.38;2.72;;;22.00;67.20;;;;;;4978438;28;20034;-78
2022/10/26 12:39:35;;;;;;;10.57;2.53;;;22.00;66.40;;;;;;4976763;28;20040;-75
2022/10/26 12:42:03;;;;;;;9.50;2.22;;;22.00;66.90;;;;;;4987540;28;20058;-75
2022/10/26 12:44:38;;;;;;;5.78;1.80;;;22.00;67.20;;;;;;4980780;28;20303;-75
2022/10/26 12:47:04;;;;;;;6.70;1.95;;;22.10;66.20;;;;;;4991078;28;20049;-77
2022/10/26 12:50:08;;;;;;;9.30;2.65;;;22.10;66.70;;;;;;4975590;28;20109;-74
2022/10/26 12:52:39;;;;;;;7.57;2.45;;;22.10;66.50;;;;;;4996007;28;20133;-75
2022/10/26 12:55:23;;;;;;;8.55;2.58;;;22.30;66.50;;;;;;4979573;28;20456;-76
2022/10/26 12:58:17;;;;;;;7.07;2.10;;;22.20;66.50;;;;;;4982494;28;20034;-75
2022/10/26 13:01:11;;;;;;;9.50;2.13;;;22.20;66.50;;;;;;4993825;28;20041;-75
2022/10/26 13:03:59;;;;;;;6.60;2.13;;;22.10;66.60;;;;;;4968962;28;20348;-74
2022/10/26 13:06:37;;;;;;;6.88;2.05;;;22.00;66.80;;;;;;5000537;28;20128;-74
2022/10/26 13:09:19;;;;;;;10.90;2.70;;;22.00;66.80;;;;;;5002334;28;20230;-75